Time;durP1;ratioP1;P1;durP2;ratioP2;P2;SDS_P1;SDS_P2;PMS_P1;PMS_P2;Temp;Humidity;BMP_temperature;BMP_pressure;BME280_temperature;BME280_humidity;BME280_pressure;Samples;Min_cycle;Max_cycle;Signal;HPM_P1;HPM_P2
2022/11/14 00:00:32;;;;;;;44.05;23.27;;;;;;;5.36;82.70;99110.34;5013016;28;20029;-83
2022/11/14 00:03:03;;;;;;;49.22;25.15;;;;;;;5.44;82.36;99099.53;5015597;28;20726;-83
2022/11/14 00:05:28;;;;;;;37.67;21.92;;;;;;;5.62;82.22;99112.91;5017744;28;20401;-82
2022/11/14 00:07:54;;;;;;;40.55;21.13;;;;;;;5.37;83.03;99124.41;5015381;28;20033;-83
2022/11/14 00:10:20;;;;;;;43.00;24.20;;;;;;;5.55;81.01;99116.63;5016959;28;20045;-83
2022/11/14 00:12:45;;;;;;;38.17;20.88;;;;;;;5.25;82.75;99103.06;5011094;28;20041;-83
2022/11/14 00:15:11;;;;;;;39.58;22.77;;;;;;;5.37;82.16;99112.00;5013340;28;21196;-83
2022/11/14 00:17:37;;;;;;;44.08;24.25;;;;;;;5.17;83.08;99090.06;5009620;28;20021;-83
2022/11/14 00:20:04;;;;;;;36.90;20.40;;;;;;;5.54;82.11;99109.69;5008982;28;20531;-83
2022/11/14 00:22:29;;;;;;;43.10;23.77;;;;;;;5.01;83.99;99103.72;5013771;28;20052;-83
2022/11/14 00:24:55;;;;;;;37.78;20.98;;;;;;;4.72;86.03;99114.75;4997843;28;20437;-82
2022/11/14 00:27:20;;;;;;;41.03;23.00;;;;;;;4.69;84.97;99099.28;5017232;28;20140;-83
2022/11/14 00:29:45;;;;;;;47.70;25.00;;;;;;;4.80;85.41;99096.84;5015780;28;20098;-83
2022/11/14 00:32:11;;;;;;;41.33;20.73;;;;;;;4.96;84.41;99100.88;5014052;28;20037;-83
2022/11/14 00:34:36;;;;;;;45.97;24.67;;;;;;;4.61;85.97;99079.16;4988705;28;20025;-82
2022/11/14 00:37:02;;;;;;;39.83;22.20;;;;;;;5.01;83.76;99099.25;5016422;28;20080;-83
2022/11/14 00:39:27;;;;;;;49.58;25.00;;;;;;;4.83;84.01;99103.53;5011269;28;20342;-83
2022/11/14 00:41:52;;;;;;;39.38;22.13;;;;;;;5.20;83.78;99090.44;5017317;28;20072;-83
2022/11/14 00:44:18;;;;;;;45.88;23.58;;;;;;;5.11;83.76;99096.97;5020402;28;20036;-83
2022/11/14 00:46:43;;;;;;;43.33;21.98;;;;;;;4.55;86.94;99096.66;5021895;28;20040;-83
2022/11/14 00:49:09;;;;;;;43.95;22.55;;;;;;;4.78;84.68;99075.09;5024769;28;20102;-82
2022/11/14 00:51:35;;;;;;;41.83;22.40;;;;;;;5.05;85.14;99094.34;5021555;28;20029;-83
2022/11/14 00:54:00;;;;;;;45.92;23.95;;;;;;;4.87;83.38;99063.25;5008577;28;20072;-83
2022/11/14 00:56:25;;;;;;;35.92;20.30;;;;;;;5.47;82.67;99071.81;5020098;28;20037;-83
2022/11/14 00:58:51;;;;;;;45.22;24.63;;;;;;;4.53;84.63;99074.09;5003905;28;20034;-83
2022/11/14 01:01:16;;;;;;;36.88;21.40;;;;;;;4.79;85.21;99063.47;5020991;28;20116;-83
2022/11/14 01:03:42;;;;;;;46.25;23.70;;;;;;;4.65;84.90;99067.19;5004309;28;20041;-82
2022/11/14 01:06:09;;;;;;;37.80;19.75;;;;;;;4.97;85.46;99070.78;5023288;28;20030;-83
2022/11/14 01:08:35;;;;;;;39.25;20.77;;;;;;;5.35;82.81;99058.47;5022805;28;20026;-83
2022/11/14 01:11:00;;;;;;;43.40;22.50;;;;;;;4.67;84.65;99064.31;5006412;28;20030;-83
2022/11/14 01:13:31;;;;;;;39.97;22.98;;;;;;;5.15;83.67;99061.16;5018455;28;20087;-82
2022/11/14 01:15:59;;;;;;;42.28;22.83;;;;;;;5.16;82.08;99049.56;5019234;28;20037;-82
2022/11/14 01:18:25;;;;;;;38.70;21.52;;;;;;;5.61;81.53;99054.88;5023022;28;20028;-83
2022/11/14 01:20:50;;;;;;;42.45;23.15;;;;;;;5.24;82.50;99053.81;5023962;28;20485;-82
2022/11/14 01:23:16;;;;;;;35.95;19.35;;;;;;;4.94;83.94;99052.66;5018695;28;20109;-83
2022/11/14 01:25:43;;;;;;;46.60;22.30;;;;;;;4.76;84.24;99053.31;5021350;28;20026;-83
2022/11/14 01:28:12;;;;;;;36.15;19.85;;;;;;;5.60;81.76;99040.81;5019960;28;20254;-83
2022/11/14 01:30:38;;;;;;;36.85;18.55;;;;;;;5.93;80.19;99046.78;5021502;28;20048;-83
2022/11/14 01:33:05;;;;;;;34.72;17.65;;;;;;;5.58;81.27;99032.28;5022994;28;20100;-83
2022/11/14 01:35:35;;;;;;;43.30;23.50;;;;;;;5.19;82.90;99048.31;5020703;28;20371;-82
2022/11/14 01:38:01;;;;;;;36.50;20.50;;;;;;;4.96;82.20;99026.81;5022881;28;20017;-82
2022/11/14 01:40:26;;;;;;;37.15;18.70;;;;;;;5.30;83.35;99050.31;5016413;28;20034;-83
2022/11/14 01:43:29;;;;;;;45.17;22.10;;;;;;;4.98;84.35;99046.75;5010987;28;20038;-83
2022/11/14 01:46:00;;;;;;;37.95;20.58;;;;;;;5.46;82.22;99049.84;5019959;28;20095;-83
2022/11/14 01:48:32;;;;;;;40.97;20.20;;;;;;;5.05;82.13;99041.44;5021347;28;20061;-83
2022/11/14 01:51:02;;;;;;;33.30;18.90;;;;;;;5.01;83.07;99040.22;5014987;28;20025;-83
2022/11/14 01:53:28;;;;;;;36.83;19.70;;;;;;;4.41;86.41;99013.09;5019424;28;20104;-82
2022/11/14 01:55:57;;;;;;;44.25;23.40;;;;;;;4.64;85.82;99031.16;5012181;28;20048;-83
2022/11/14 01:58:23;;;;;;;38.70;20.48;;;;;;;4.53;85.24;99024.69;5017790;28;20424;-83
2022/11/14 02:00:48;;;;;;;45.50;22.73;;;;;;;4.73;84.56;99021.19;5023056;28;20565;-83
2022/11/14 02:03:15;;;;;;;48.10;23.38;;;;;;;4.40;85.54;99022.06;5020921;28;20136;-83
2022/11/14 02:05:43;;;;;;;44.40;24.38;;;;;;;4.63;84.77;99021.59;5021602;28;20053;-83
2022/11/14 02:08:11;;;;;;;42.22;19.58;;;;;;;5.37;83.10;99021.19;5019625;28;20033;-83
2022/11/14 02:10:37;;;;;;;48.65;23.30;;;;;;;4.80;83.04;99008.78;5026716;28;20518;-82
2022/11/14 02:13:02;;;;;;;36.88;20.30;;;;;;;4.88;84.02;99008.53;5019110;28;20068;-82
2022/11/14 02:15:28;;;;;;;36.42;20.55;;;;;;;5.13;83.82;99002.34;5020364;28;20436;-83
2022/11/14 02:17:54;;;;;;;45.67;23.23;;;;;;;4.90;82.64;98990.63;5015456;28;20520;-82
2022/11/14 02:20:28;;;;;;;45.13;24.08;;;;;;;4.86;83.53;99002.66;4983384;28;20040;-82
2022/11/14 02:22:54;;;;;;;47.65;21.80;;;;;;;5.09;82.88;98995.84;5013312;28;20183;-83
2022/11/14 02:25:20;;;;;;;40.80;21.60;;;;;;;4.70;85.56;98993.31;4999818;28;20541;-82
2022/11/14 02:27:45;;;;;;;46.35;21.10;;;;;;;5.02;83.73;98989.75;5018406;28;20288;-83
2022/11/14 02:30:14;;;;;;;39.35;20.40;;;;;;;4.77;85.34;98986.19;5016598;28;20037;-83
2022/11/14 02:32:40;;;;;;;38.80;20.45;;;;;;;5.30;83.37;98986.81;5011406;28;20025;-83
2022/11/14 02:35:05;;;;;;;50.45;24.23;;;;;;;4.57;84.24;98973.03;5019456;28;20033;-83
2022/11/14 02:37:31;;;;;;;42.75;22.52;;;;;;;4.72;84.61;98980.72;5001870;28;20052;-83
2022/11/14 02:39:56;;;;;;;41.90;22.15;;;;;;;4.48;84.88;98963.69;5011348;28;20038;-83
2022/11/14 02:42:21;;;;;;;38.25;21.25;;;;;;;4.60;85.76;98957.78;5005942;28;20036;-83
2022/11/14 02:44:47;;;;;;;37.45;20.92;;;;;;;5.02;83.64;98959.88;5004847;28;20332;-83
2022/11/14 02:47:12;;;;;;;36.55;18.98;;;;;;;5.67;82.12;98964.00;5024124;28;20029;-83
2022/11/14 02:49:37;;;;;;;40.15;21.20;;;;;;;5.33;82.34;98962.56;5025500;28;20113;-83
2022/11/14 02:52:03;;;;;;;48.90;24.30;;;;;;;5.04;82.62;98966.59;5010351;28;20132;-83
2022/11/14 02:54:28;;;;;;;35.75;20.15;;;;;;;5.09;83.11;98947.41;5015843;28;20033;-83
2022/11/14 02:56:54;;;;;;;46.97;23.70;;;;;;;5.27;82.36;98963.41;5024697;28;20436;-83
2022/11/14 02:59:19;;;;;;;39.15;20.38;;;;;;;5.33;82.60;98941.38;5023180;28;20029;-83
2022/11/14 03:01:45;;;;;;;42.15;21.90;;;;;;;5.18;82.21;98962.03;5001312;28;20324;-83
2022/11/14 03:04:11;;;;;;;44.33;24.08;;;;;;;4.43;83.67;98931.78;5005453;28;20355;-82
2022/11/14 03:06:36;;;;;;;34.88;20.10;;;;;;;5.20;83.97;98938.81;4995270;28;20045;-82
2022/11/14 03:09:02;;;;;;;40.50;21.67;;;;;;;5.24;81.94;98947.97;5018699;28;20061;-82
2022/11/14 03:11:27;;;;;;;42.45;23.88;;;;;;;4.62;82.03;98916.09;5011794;28;20037;-83
2022/11/14 03:13:52;;;;;;;45.08;22.00;;;;;;;4.84;83.01;98949.97;5003012;28;20040;-83
2022/11/14 03:16:18;;;;;;;41.55;21.13;;;;;;;4.84;83.94;98928.00;5016604;28;20485;-83
2022/11/14 03:18:44;;;;;;;37.92;20.88;;;;;;;5.29;82.03;98934.91;5026024;28;20456;-83
2022/11/14 03:21:12;;;;;;;40.90;22.13;;;;;;;4.43;83.47;98918.56;5020290;28;20504;-83
2022/11/14 03:23:38;;;;;;;44.03;22.52;;;;;;;4.62;84.05;98937.22;5020342;28;20084;-82
2022/11/14 03:26:06;;;;;;;38.38;18.90;;;;;;;4.77;83.29;98903.41;5014807;28;20133;-83
2022/11/14 03:28:32;;;;;;;34.28;19.58;;;;;;;5.51;80.90;98945.97;4999463;28;20179;-83
2022/11/14 03:30:57;;;;;;;36.22;20.85;;;;;;;5.26;81.17;98922.91;5006289;28;20501;-82
2022/11/14 03:33:23;;;;;;;42.95;22.10;;;;;;;4.85;83.88;98924.34;5005628;28;20068;-82
2022/11/14 03:35:49;;;;;;;37.42;20.67;;;;;;;5.06;83.41;98932.81;5020457;28;20108;-83
2022/11/14 03:38:15;;;;;;;31.63;19.20;;;;;;;5.24;82.66;98926.81;5003516;28;20043;-83
2022/11/14 03:40:41;;;;;;;38.28;21.38;;;;;;;5.18;82.52;98938.22;5002094;28;20034;-83
2022/11/14 03:43:06;;;;;;;34.58;18.83;;;;;;;5.46;81.48;98925.44;5022660;28;20440;-83
2022/11/14 03:45:32;;;;;;;39.08;19.75;;;;;;;5.06;82.65;98924.88;5021299;28;20029;-83
2022/11/14 03:47:57;;;;;;;32.60;18.13;;;;;;;5.46;82.55;98922.78;5005871;28;20036;-83
2022/11/14 03:50:22;;;;;;;45.83;23.98;;;;;;;5.02;82.18;98926.28;5005830;28;20033;-83
2022/11/14 03:52:49;;;;;;;48.78;26.02;;;;;;;4.70;82.71;98919.31;5022033;28;20325;-83
2022/11/14 03:55:14;;;;;;;34.00;19.58;;;;;;;4.96;84.04;98913.09;5021772;28;20038;-83
2022/11/14 03:57:40;;;;;;;47.45;23.88;;;;;;;4.88;82.54;98919.44;5023996;28;20417;-84
2022/11/14 04:00:06;;;;;;;39.42;19.65;;;;;;;5.46;82.01;98919.34;5024839;28;20035;-83
2022/11/14 04:02:31;;;;;;;34.67;19.10;;;;;;;5.44;81.80;98895.72;5019125;28;20750;-83
2022/11/14 04:04:56;;;;;;;35.35;19.40;;;;;;;5.70;80.64;98906.13;5025740;28;20456;-84
2022/11/14 04:07:22;;;;;;;46.72;24.55;;;;;;;5.10;82.10;98912.84;5025105;28;20029;-83
2022/11/14 04:09:47;;;;;;;43.10;23.63;;;;;;;4.81;84.27;98902.78;5028472;28;20033;-83
2022/11/14 04:12:13;;;;;;;47.75;25.35;;;;;;;4.35;84.92;98908.22;5017097;28;20052;-83
2022/11/14 04:14:38;;;;;;;47.95;24.02;;;;;;;4.09;86.47;98887.16;5020488;28;20409;-83
2022/11/14 04:17:03;;;;;;;43.20;24.45;;;;;;;4.90;83.56;98901.53;4987131;28;20037;-83
2022/11/14 04:19:29;;;;;;;35.38;19.92;;;;;;;4.98;84.30;98892.56;5004670;28;20112;-83
2022/11/14 04:21:54;;;;;;;47.88;26.17;;;;;;;4.74;83.84;98895.94;4997358;28;20036;-83
2022/11/14 04:24:19;;;;;;;39.60;22.15;;;;;;;4.98;83.13;98888.06;5006472;28;20037;-84
2022/11/14 04:26:45;;;;;;;35.22;20.17;;;;;;;5.17;82.84;98896.94;5004854;28;20573;-83
2022/11/14 04:29:10;;;;;;;46.47;25.08;;;;;;;4.78;83.97;98882.09;5024271;28;20041;-83
2022/11/14 04:31:35;;;;;;;47.40;24.02;;;;;;;4.96;83.49;98895.41;4997174;28;20131;-83
2022/11/14 04:34:01;;;;;;;42.35;22.27;;;;;;;4.99;83.85;98896.81;5011547;28;20486;-83
2022/11/14 04:36:26;;;;;;;58.58;28.85;;;;;;;4.36;85.63;98899.31;5002720;28;20364;-84
2022/11/14 04:38:52;;;;;;;52.80;28.45;;;;;;;4.21;86.97;98874.97;5019172;28;20021;-83
2022/11/14 04:41:17;;;;;;;39.28;20.70;;;;;;;4.82;85.90;98885.91;5023884;28;20029;-84
2022/11/14 04:43:42;;;;;;;52.08;26.73;;;;;;;4.85;84.25;98887.34;5018877;28;20033;-83
2022/11/14 04:46:08;;;;;;;51.53;25.98;;;;;;;4.37;87.17;98884.25;5022514;28;20030;-83
2022/11/14 04:48:33;;;;;;;44.58;24.65;;;;;;;4.56;85.55;98884.16;5024037;28;20079;-83
2022/11/14 04:50:58;;;;;;;42.58;22.90;;;;;;;4.82;84.61;98875.34;5020257;28;20029;-83
2022/11/14 04:53:24;;;;;;;50.78;26.65;;;;;;;4.40;84.98;98847.66;4989105;28;20026;-83
2022/11/14 04:55:49;;;;;;;47.30;26.35;;;;;;;4.71;85.04;98876.00;5025454;28;20102;-83
2022/11/14 04:58:14;;;;;;;53.72;27.85;;;;;;;4.41;86.98;98867.75;5027128;28;20532;-83
2022/11/14 05:00:40;;;;;;;41.33;21.00;;;;;;;5.09;84.51;98874.16;5022364;28;20033;-81
2022/11/14 05:03:07;;;;;;;50.88;27.35;;;;;;;4.71;84.25;98852.22;5020509;28;20029;-81
2022/11/14 05:05:32;;;;;;;37.53;21.65;;;;;;;5.43;81.76;98861.53;5023446;28;20030;-82
2022/11/14 05:07:58;;;;;;;48.45;26.83;;;;;;;4.84;83.93;98864.53;5021804;28;20030;-82
2022/11/14 05:10:23;;;;;;;54.53;28.42;;;;;;;4.42;85.60;98852.72;5024350;28;20060;-81
2022/11/14 05:12:52;;;;;;;47.90;24.60;;;;;;;4.27;86.27;98831.84;5020197;28;20037;-81
2022/11/14 05:15:18;;;;;;;48.63;26.08;;;;;;;4.62;85.11;98834.16;4988785;28;20693;-82
2022/11/14 05:17:43;;;;;;;44.17;23.77;;;;;;;5.01;84.17;98833.94;5022687;28;20030;-82
2022/11/14 05:20:09;;;;;;;53.20;26.95;;;;;;;4.89;83.94;98840.94;5016971;28;20044;-82
2022/11/14 05:22:35;;;;;;;41.97;23.70;;;;;;;4.97;83.73;98848.59;5022567;28;20057;-82
2022/11/14 05:25:00;;;;;;;46.08;26.35;;;;;;;4.89;83.73;98828.50;5023773;28;20029;-82
2022/11/14 05:27:25;;;;;;;48.05;25.83;;;;;;;4.34;85.11;98821.25;5019018;28;20096;-81
2022/11/14 05:29:51;;;;;;;49.25;24.50;;;;;;;4.19;87.19;98831.28;5020798;28;20493;-82
2022/11/14 05:32:16;;;;;;;53.65;28.17;;;;;;;4.28;86.98;98846.66;4995774;28;20029;-81
2022/11/14 05:34:42;;;;;;;44.95;24.30;;;;;;;4.61;85.56;98825.41;5005481;28;20029;-83
2022/11/14 05:37:07;;;;;;;38.72;22.35;;;;;;;5.40;82.69;98838.13;5007109;28;20033;-82
2022/11/14 05:39:33;;;;;;;45.88;26.98;;;;;;;4.85;84.35;98829.94;5000304;28;20034;-83
2022/11/14 05:41:58;;;;;;;42.28;22.55;;;;;;;4.34;86.28;98839.75;5018025;28;20507;-82
2022/11/14 05:44:23;;;;;;;45.30;24.50;;;;;;;4.37;86.25;98828.75;5027234;28;20469;-83
2022/11/14 05:46:49;;;;;;;40.78;21.45;;;;;;;4.89;84.93;98833.00;5029473;28;20080;-83
2022/11/14 05:49:14;;;;;;;50.75;26.60;;;;;;;4.66;84.33;98812.38;5029256;28;20040;-83
2022/11/14 05:51:39;;;;;;;41.10;22.23;;;;;;;4.81;85.29;98812.91;5027061;28;20061;-82
2022/11/14 05:54:05;;;;;;;55.88;27.25;;;;;;;4.65;83.65;98805.47;5029812;28;20037;-83
2022/11/14 05:56:30;;;;;;;41.03;23.27;;;;;;;4.64;84.54;98787.16;4996214;28;20549;-83
2022/11/14 05:58:55;;;;;;;47.30;24.55;;;;;;;4.66;85.08;98814.19;5013403;28;20026;-83
2022/11/14 06:01:21;;;;;;;46.08;23.35;;;;;;;4.59;83.79;98798.38;5028950;28;20449;-82
2022/11/14 06:03:47;;;;;;;52.33;28.70;;;;;;;3.71;85.72;98784.06;4995704;28;20057;-82
2022/11/14 06:06:16;;;;;;;56.00;29.10;;;;;;;3.60;87.55;98808.44;5028655;28;21486;-83
2022/11/14 06:08:42;;;;;;;58.72;31.80;;;;;;;3.36;88.78;98816.16;5029430;28;20133;-83
2022/11/14 06:11:10;;;;;;;62.55;32.28;;;;;;;3.36;89.23;98817.00;5029213;28;20135;-82
2022/11/14 06:13:36;;;;;;;67.05;33.65;;;;;;;3.11;89.77;98815.94;5027744;28;20268;-82
2022/11/14 06:16:04;;;;;;;53.45;29.15;;;;;;;3.03;89.52;98784.50;5032407;28;20052;-83
2022/11/14 06:18:30;;;;;;;72.63;35.38;;;;;;;3.00;89.50;98780.44;5031426;28;20029;-83
2022/11/14 06:21:16;;;;;;;53.47;29.50;;;;;;;3.02;88.82;98798.69;5005816;28;20065;-82
2022/11/14 06:23:42;;;;;;;52.92;27.65;;;;;;;3.17;90.82;98806.44;5022688;28;20026;-82
2022/11/14 06:26:29;;;;;;;54.67;26.30;;;;;;;3.35;88.51;98825.09;5030420;28;20087;-83
2022/11/14 06:28:54;;;;;;;59.20;27.02;;;;;;;3.12;88.06;98798.31;5030394;28;20029;-84
2022/11/14 06:31:20;;;;;;;65.43;33.95;;;;;;;3.48;87.05;98836.47;5022757;28;20045;-83
2022/11/14 06:33:45;;;;;;;49.03;26.58;;;;;;;3.37;87.56;98830.97;5029648;28;20132;-83
2022/11/14 06:36:11;;;;;;;56.30;31.52;;;;;;;3.15;87.72;98834.81;5024322;28;20038;-83
2022/11/14 06:38:38;;;;;;;63.63;30.77;;;;;;;2.90;89.22;98842.50;5028668;28;20049;-83
2022/11/14 06:41:13;;;;;;;63.80;30.33;;;;;;;2.81;88.99;98807.59;5017226;28;20040;-83
2022/11/14 06:43:41;;;;;;;57.53;30.75;;;;;;;2.54;90.13;98818.25;5023686;28;20034;-82
2022/11/14 06:46:08;;;;;;;68.55;33.08;;;;;;;2.59;90.72;98827.19;5011036;28;20026;-83
2022/11/14 06:48:34;;;;;;;69.70;32.30;;;;;;;2.88;89.68;98834.75;5026622;28;20029;-82
2022/11/14 06:51:01;;;;;;;63.28;30.83;;;;;;;2.41;90.70;98836.63;5031656;28;20041;-82
2022/11/14 06:53:28;;;;;;;65.35;32.35;;;;;;;2.42;91.87;98844.38;5023224;28;20044;-83
2022/11/14 06:55:56;;;;;;;68.55;32.65;;;;;;;2.44;91.31;98834.44;5031034;28;20045;-83
2022/11/14 06:58:21;;;;;;;67.05;33.13;;;;;;;2.31;92.12;98839.66;5027862;28;20430;-82
2022/11/14 07:00:47;;;;;;;63.47;30.17;;;;;;;2.46;91.87;98842.13;5008381;28;20071;-82
2022/11/14 07:03:12;;;;;;;68.68;33.63;;;;;;;1.92;93.21;98805.25;5022608;28;20401;-82
2022/11/14 07:05:37;;;;;;;71.70;36.38;;;;;;;2.35;92.49;98829.53;5031937;28;20094;-82
2022/11/14 07:08:03;;;;;;;56.53;27.95;;;;;;;2.68;92.35;98833.09;5025202;28;20037;-82
2022/11/14 07:10:28;;;;;;;65.80;33.90;;;;;;;2.67;90.64;98831.47;5002787;28;20044;-82
2022/11/14 07:12:54;;;;;;;58.63;30.63;;;;;;;2.87;90.81;98830.50;5012302;28;20029;-82
2022/11/14 07:15:19;;;;;;;68.18;32.92;;;;;;;2.87;90.66;98837.59;5024787;28;20048;-82
2022/11/14 07:17:44;;;;;;;65.75;33.00;;;;;;;2.52;92.02;98846.63;5027839;28;20085;-82
2022/11/14 07:20:10;;;;;;;54.58;29.23;;;;;;;2.76;91.14;98843.44;5026933;28;20029;-82
2022/11/14 07:22:35;;;;;;;67.72;34.33;;;;;;;2.69;91.03;98827.63;5030268;28;20116;-82
2022/11/14 07:25:00;;;;;;;56.35;30.25;;;;;;;3.03;90.28;98838.06;5031328;28;20036;-82
2022/11/14 07:27:26;;;;;;;66.70;33.53;;;;;;;2.58;91.30;98844.00;5029098;28;20124;-83
2022/11/14 07:29:51;;;;;;;58.03;30.85;;;;;;;2.73;90.82;98828.84;5029344;28;20068;-82
2022/11/14 07:32:17;;;;;;;50.90;28.17;;;;;;;2.93;90.78;98832.34;5026533;28;20084;-82
2022/11/14 07:34:42;;;;;;;63.65;31.15;;;;;;;2.94;89.21;98844.53;4992726;28;20030;-82
2022/11/14 07:37:07;;;;;;;61.38;31.25;;;;;;;3.15;88.70;98830.34;5011559;28;20590;-83
2022/11/14 07:39:33;;;;;;;61.95;31.17;;;;;;;2.56;90.84;98839.94;5027412;28;20041;-83
2022/11/14 07:41:58;;;;;;;59.30;31.45;;;;;;;2.60;91.35;98828.03;5016493;28;20065;-82
2022/11/14 07:44:23;;;;;;;60.05;29.42;;;;;;;2.94;90.74;98849.81;5024706;28;20030;-82
2022/11/14 07:46:50;;;;;;;51.80;27.20;;;;;;;2.73;91.33;98817.53;5022216;28;20038;-82
2022/11/14 07:49:16;;;;;;;59.15;31.05;;;;;;;2.69;93.08;98848.69;5025455;28;20041;-82
2022/11/14 07:51:41;;;;;;;57.80;28.42;;;;;;;3.02;91.32;98854.88;5006714;28;20041;-82
2022/11/14 07:54:10;;;;;;;60.40;31.02;;;;;;;2.92;90.78;98833.38;5026410;28;20139;-82
2022/11/14 07:56:35;;;;;;;67.28;32.38;;;;;;;2.78;91.47;98859.88;5011034;28;20044;-82
2022/11/14 07:59:00;;;;;;;57.58;30.25;;;;;;;2.93;91.19;98832.34;5009508;28;20029;-82
2022/11/14 08:01:26;;;;;;;58.97;28.83;;;;;;;3.10;91.29;98843.34;5008171;28;20425;-82
2022/11/14 08:03:51;;;;;;;67.05;32.42;;;;;;;3.37;89.40;98833.59;5029864;28;20163;-82
2022/11/14 08:06:17;;;;;;;51.47;26.90;;;;;;;3.70;89.21;98861.63;5028218;28;20037;-83
2022/11/14 08:08:42;;;;;;;48.70;25.63;;;;;;;4.01;87.45;98852.22;5006505;28;20508;-83
2022/11/14 08:11:08;;;;;;;61.97;30.65;;;;;;;2.98;89.62;98824.66;5024239;28;20041;-83
2022/11/14 08:13:33;;;;;;;48.47;26.63;;;;;;;3.40;91.15;98867.50;5030334;28;20029;-82
2022/11/14 08:16:06;;;;;;;46.63;25.27;;;;;;;4.21;86.52;98845.91;5025891;28;20030;-82
2022/11/14 08:18:32;;;;;;;48.92;27.70;;;;;;;3.97;86.66;98841.28;5026350;28;20017;-82
2022/11/14 08:20:58;;;;;;;53.60;29.13;;;;;;;4.09;86.22;98842.25;4993325;28;20453;-82
2022/11/14 08:23:23;;;;;;;51.88;29.67;;;;;;;3.54;89.52;98842.72;5027027;28;20397;-82
2022/11/14 08:25:49;;;;;;;44.35;23.77;;;;;;;4.60;84.60;98842.28;5028783;28;20021;-82
2022/11/14 08:28:14;;;;;;;49.47;25.95;;;;;;;4.53;84.35;98841.50;5026200;28;20040;-82
2022/11/14 08:30:39;;;;;;;49.70;25.30;;;;;;;4.16;86.15;98832.50;5021596;28;20037;-82
2022/11/14 08:33:06;;;;;;;46.67;26.33;;;;;;;4.45;84.93;98847.03;4992160;28;20044;-83
2022/11/14 08:35:32;;;;;;;49.92;24.80;;;;;;;4.09;86.53;98833.53;5031895;28;20503;-82
2022/11/14 08:37:57;;;;;;;53.65;30.38;;;;;;;3.99;87.39;98831.31;5010896;28;20108;-82
2022/11/14 08:40:23;;;;;;;46.35;24.33;;;;;;;4.62;85.08;98840.25;5007520;28;20116;-82
2022/11/14 08:42:49;;;;;;;37.90;21.55;;;;;;;4.39;86.23;98838.09;5023569;28;20035;-82
2022/11/14 08:45:14;;;;;;;48.92;25.98;;;;;;;3.87;89.04;98845.38;5027922;28;20497;-83
2022/11/14 08:47:39;;;;;;;49.58;26.20;;;;;;;4.84;84.32;98835.47;5023646;28;20374;-82
2022/11/14 08:50:05;;;;;;;46.53;24.08;;;;;;;4.97;83.07;98841.50;5025687;28;20069;-82
2022/11/14 08:52:30;;;;;;;38.17;21.48;;;;;;;4.85;84.83;98835.25;5007732;28;20067;-82
2022/11/14 08:54:56;;;;;;;44.30;23.15;;;;;;;4.87;83.43;98822.63;5029380;28;20384;-82
2022/11/14 08:57:21;;;;;;;44.70;25.48;;;;;;;5.06;82.62;98815.59;5025672;28;20033;-83
2022/11/14 08:59:47;;;;;;;44.60;24.38;;;;;;;4.72;85.19;98818.66;5028273;28;20560;-83
2022/11/14 09:02:12;;;;;;;52.00;27.02;;;;;;;4.32;86.22;98781.84;5020262;28;20037;-82
2022/11/14 09:04:38;;;;;;;44.88;24.98;;;;;;;4.09;89.51;98805.28;5029952;28;20056;-82
2022/11/14 09:07:04;;;;;;;48.25;25.67;;;;;;;4.39;88.04;98805.59;5028262;28;20033;-82
2022/11/14 09:09:29;;;;;;;49.40;25.80;;;;;;;4.07;88.55;98795.94;5032702;28;20531;-82
2022/11/14 09:11:54;;;;;;;50.40;25.95;;;;;;;4.10;89.58;98799.00;5031648;28;20296;-82
2022/11/14 09:14:20;;;;;;;47.22;25.98;;;;;;;4.37;88.06;98795.22;5031825;28;20065;-82
2022/11/14 09:16:48;;;;;;;45.40;23.90;;;;;;;4.14;89.61;98804.66;5010401;28;20052;-82
2022/11/14 09:19:14;;;;;;;46.83;25.52;;;;;;;4.10;90.25;98803.47;5015306;28;20041;-82
2022/11/14 09:21:39;;;;;;;50.78;26.33;;;;;;;3.68;92.15;98788.94;5025628;28;20025;-85
2022/11/14 09:24:05;;;;;;;56.08;26.48;;;;;;;3.79;92.06;98780.41;5028324;28;20037;-84
2022/11/14 09:26:30;;;;;;;55.17;25.13;;;;;;;4.09;90.89;98776.25;5020101;28;20460;-84
2022/11/14 09:28:56;;;;;;;49.67;26.55;;;;;;;3.69;91.40;98721.97;5032144;28;20128;-84
2022/11/14 09:31:21;;;;;;;42.75;25.00;;;;;;;4.34;88.78;98750.75;5026855;28;20049;-84
2022/11/14 09:33:47;;;;;;;36.03;20.90;;;;;;;5.05;85.79;98777.75;5025996;28;20037;-84
2022/11/14 09:36:17;;;;;;;45.20;24.23;;;;;;;4.71;87.63;98777.38;5029757;28;20045;-84
2022/11/14 09:38:43;;;;;;;43.10;24.20;;;;;;;4.83;87.24;98768.53;5023545;28;20034;-83
2022/11/14 09:41:46;;;;;;;40.72;24.05;;;;;;;4.49;88.90;98783.00;5024644;28;20037;-83
2022/11/14 09:44:44;;;;;;;49.92;26.20;;;;;;;4.66;88.23;98771.91;5031113;28;20051;-83
2022/11/14 09:47:14;;;;;;;44.97;24.05;;;;;;;4.39;90.26;98765.97;5025258;28;20085;-84
2022/11/14 09:49:42;;;;;;;45.15;23.70;;;;;;;4.59;90.05;98764.00;5027140;28;20037;-83
2022/11/14 09:52:35;;;;;;;43.25;23.35;;;;;;;4.62;89.59;98757.50;5028614;28;20461;-83
2022/11/14 09:55:13;;;;;;;40.95;23.52;;;;;;;5.02;86.80;98740.34;5026054;28;20017;-84
2022/11/14 09:57:42;;;;;;;48.15;25.15;;;;;;;4.83;88.29;98741.28;5012996;28;20036;-83
2022/11/14 10:00:19;;;;;;;42.08;21.85;;;;;;;5.24;85.33;98760.13;5002897;28;20505;-83
2022/11/14 10:03:00;;;;;;;36.20;20.90;;;;;;;5.32;85.42;98762.47;5025722;28;20022;-84
2022/11/14 10:05:50;;;;;;;38.97;22.08;;;;;;;5.78;83.48;98762.03;5022681;28;20056;-84
2022/11/14 10:08:34;;;;;;;31.95;17.08;;;;;;;5.75;82.60;98746.59;5025937;28;20018;-85
2022/11/14 10:11:08;;;;;;;31.98;18.42;;;;;;;5.84;82.26;98769.94;5027111;28;20497;-84
2022/11/14 10:13:52;;;;;;;34.80;20.02;;;;;;;5.62;84.96;98765.25;5022518;28;20600;-84
2022/11/14 10:16:30;;;;;;;36.17;21.17;;;;;;;5.57;84.04;98739.44;5021134;28;20156;-84
2022/11/14 10:19:33;;;;;;;29.27;17.83;;;;;;;5.67;84.94;98776.00;5037522;28;20113;-83
2022/11/14 10:22:13;;;;;;;34.50;19.58;;;;;;;5.81;83.29;98778.28;5026635;28;20432;-83
2022/11/14 10:24:47;;;;;;;30.27;18.70;;;;;;;5.74;84.56;98766.16;5025446;28;20029;-84
2022/11/14 10:27:26;;;;;;;36.83;21.00;;;;;;;5.88;84.43;98762.38;5019763;28;20478;-83
2022/11/14 10:30:09;;;;;;;37.05;20.80;;;;;;;5.57;86.91;98765.91;5021146;28;20040;-84
2022/11/14 10:32:59;;;;;;;34.65;20.52;;;;;;;5.39;87.44;98760.59;5043600;28;20501;-84
2022/11/14 10:35:36;;;;;;;36.10;20.50;;;;;;;5.60;86.43;98768.13;5020486;28;20033;-84
2022/11/14 10:38:22;;;;;;;37.55;20.80;;;;;;;5.57;86.78;98755.31;5018024;28;20025;-84
2022/11/14 10:40:51;;;;;;;40.60;20.52;;;;;;;5.89;85.91;98758.69;5026223;28;20101;-82
2022/11/14 10:43:35;;;;;;;32.83;18.30;;;;;;;5.97;84.93;98738.03;5026567;28;20041;-83
2022/11/14 10:46:06;;;;;;;33.00;19.23;;;;;;;6.30;84.66;98747.41;5042744;28;20547;-83
2022/11/14 10:48:41;;;;;;;32.53;19.30;;;;;;;6.28;82.62;98717.66;5027037;28;20405;-83
2022/11/14 10:51:30;;;;;;;29.00;19.13;;;;;;;6.52;82.67;98736.09;5021759;28;20045;-83
2022/11/14 10:54:04;;;;;;;29.88;17.80;;;;;;;6.43;83.39;98732.16;5022907;28;20022;-83
2022/11/14 10:56:30;;;;;;;25.25;16.73;;;;;;;6.87;81.42;98736.22;5027413;28;20044;-83
2022/11/14 10:58:55;;;;;;;26.80;18.50;;;;;;;6.65;82.05;98732.47;5004620;28;20033;-83
2022/11/14 11:01:37;;;;;;;23.55;15.27;;;;;;;6.94;81.37;98749.38;5019655;28;20041;-83
2022/11/14 11:04:32;;;;;;;25.13;16.45;;;;;;;7.02;81.78;98749.84;5025252;28;20052;-83
2022/11/14 11:07:07;;;;;;;25.33;17.00;;;;;;;6.97;81.79;98747.06;5017519;28;20417;-83
2022/11/14 11:12:23;;;;;;;24.30;16.05;;;;;;;7.29;79.73;98739.63;5026510;28;20452;-82
2022/11/14 11:15:29;;;;;;;21.77;15.32;;;;;;;7.25;81.13;98746.44;5013489;28;20105;-84
2022/11/14 11:17:59;;;;;;;24.77;15.88;;;;;;;7.38;79.61;98743.56;5024603;28;21212;-84
2022/11/14 11:20:25;;;;;;;26.48;16.85;;;;;;;7.21;80.51;98754.03;5024701;28;20045;-83
2022/11/14 11:23:01;;;;;;;25.30;15.57;;;;;;;7.27;80.07;98729.22;5024168;28;20386;-84
2022/11/14 11:25:28;;;;;;;25.60;16.85;;;;;;;7.20;80.57;98731.19;5028986;28;20091;-83
2022/11/14 11:28:19;;;;;;;29.02;17.92;;;;;;;7.17;81.09;98734.31;5020831;28;20470;-84
2022/11/14 11:30:55;;;;;;;24.60;15.88;;;;;;;7.56;80.21;98744.25;5024883;28;20528;-84
2022/11/14 11:33:22;;;;;;;;;;;;;;;7.75;79.55;98731.66;5024930;28;20037;-84